createdAt,value
2022-08-08T00:00:53.877Z,99.90
2022-08-08T00:02:49.311Z,99.90
2022-08-08T00:05:44.084Z,99.90
2022-08-08T00:08:37.616Z,99.90
2022-08-08T00:12:03.292Z,99.90
2022-08-08T00:15:01.029Z,99.90
2022-08-08T00:18:03.320Z,99.90
2022-08-08T00:20:50.465Z,99.90
2022-08-08T00:23:28.435Z,99.90
2022-08-08T00:26:13.004Z,99.90
2022-08-08T00:28:48.893Z,99.90
2022-08-08T00:32:20.614Z,99.90
2022-08-08T00:34:49.057Z,99.90
2022-08-08T00:37:47.692Z,99.90
2022-08-08T00:41:12.596Z,99.90
2022-08-08T00:43:40.913Z,99.90
2022-08-08T00:46:57.120Z,99.90
2022-08-08T00:49:58.750Z,99.90
2022-08-08T00:53:06.999Z,99.90
2022-08-08T00:56:20.245Z,99.90
2022-08-08T00:59:43.095Z,99.90
2022-08-08T01:03:57.338Z,99.90
2022-08-08T01:05:58.644Z,99.90
2022-08-08T01:08:33.195Z,99.90
2022-08-08T01:11:37.761Z,99.90
2022-08-08T01:14:17.692Z,99.90
2022-08-08T01:17:07.464Z,99.90
2022-08-08T01:20:03.254Z,99.90
2022-08-08T01:22:55.698Z,99.90
2022-08-08T01:25:49.169Z,99.90
2022-08-08T01:28:44.933Z,99.90
2022-08-08T01:32:02.781Z,99.90
2022-08-08T01:34:12.569Z,99.90
2022-08-08T01:37:57.449Z,99.90
2022-08-08T01:40:28.260Z,99.90
2022-08-08T01:43:21.011Z,99.90
2022-08-08T01:46:24.374Z,99.90
2022-08-08T01:49:23.222Z,99.90
2022-08-08T01:52:51.765Z,99.90
2022-08-08T01:55:44.891Z,99.90
2022-08-08T01:58:39.527Z,99.90
2022-08-08T02:01:54.738Z,99.90
2022-08-08T02:04:46.074Z,99.90
2022-08-08T02:07:41.496Z,99.90
2022-08-08T02:10:46.431Z,99.90
2022-08-08T02:13:54.060Z,99.90
2022-08-08T02:16:54.600Z,99.90
2022-08-08T02:19:57.818Z,99.90
2022-08-08T02:22:34.085Z,99.90
2022-08-08T02:25:32.792Z,99.90
2022-08-08T02:28:40.165Z,99.90
2022-08-08T02:31:54.187Z,99.90
2022-08-08T02:34:49.813Z,99.90
2022-08-08T02:37:59.181Z,99.90
2022-08-08T02:40:45.067Z,99.90
2022-08-08T02:44:38.561Z,99.90
2022-08-08T02:46:27.857Z,99.90
2022-08-08T02:49:04.811Z,99.90
2022-08-08T02:52:07.309Z,99.90
2022-08-08T02:55:31.936Z,99.90
2022-08-08T02:58:22.951Z,99.90
2022-08-08T03:01:21.710Z,99.90
2022-08-08T03:05:02.949Z,99.90
2022-08-08T03:07:24.801Z,99.90
2022-08-08T03:10:03.757Z,99.90
2022-08-08T03:13:02.310Z,99.90
2022-08-08T03:15:58.111Z,99.90
2022-08-08T03:18:53.189Z,99.90
2022-08-08T03:21:20.103Z,99.90
2022-08-08T03:24:06.808Z,99.90
2022-08-08T03:26:42.680Z,99.90
2022-08-08T03:29:18.563Z,99.90
2022-08-08T03:32:12.541Z,99.90
2022-08-08T03:34:41.191Z,99.90
2022-08-08T03:37:58.973Z,99.90
2022-08-08T03:40:03.620Z,99.90
2022-08-08T03:42:31.366Z,99.90
2022-08-08T03:44:58.695Z,99.90
2022-08-08T03:47:39.417Z,99.90
2022-08-08T03:50:20.248Z,99.90
2022-08-08T03:52:51.926Z,99.90
2022-08-08T03:55:58.049Z,99.90
2022-08-08T03:58:34.408Z,99.90
2022-08-08T04:01:23.046Z,99.90
2022-08-08T04:03:57.789Z,99.90
2022-08-08T04:06:29.385Z,99.90
2022-08-08T04:08:57.949Z,99.90
2022-08-08T04:11:25.557Z,99.90
2022-08-08T04:14:03.987Z,99.90
2022-08-08T04:16:41.393Z,99.90
2022-08-08T04:19:23.715Z,99.90
2022-08-08T04:21:54.653Z,99.90
2022-08-08T04:24:28.583Z,99.90
2022-08-08T04:26:59.171Z,99.90
2022-08-08T04:29:27.456Z,99.90
2022-08-08T04:32:00.802Z,99.90
2022-08-08T04:34:31.975Z,99.90
2022-08-08T04:37:10.171Z,99.90
2022-08-08T04:40:05.763Z,99.90
2022-08-08T04:42:28.683Z,99.90
2022-08-08T04:44:57.802Z,99.90
2022-08-08T04:47:26.120Z,99.90
2022-08-08T04:50:01.304Z,99.90
2022-08-08T04:52:34.114Z,99.90
2022-08-08T04:55:02.363Z,99.90
2022-08-08T04:57:31.984Z,99.90
2022-08-08T05:00:02.230Z,99.90
2022-08-08T05:02:31.120Z,99.90
2022-08-08T05:04:59.564Z,99.90
2022-08-08T05:07:37.977Z,99.90
2022-08-08T05:10:12.821Z,99.90
2022-08-08T05:12:53.395Z,99.90
2022-08-08T05:16:48.116Z,99.90
2022-08-08T05:18:15.290Z,99.90
2022-08-08T05:20:50.251Z,99.90
2022-08-08T05:23:20.491Z,99.90
2022-08-08T05:25:49.562Z,99.90
2022-08-08T05:28:27.972Z,99.90
2022-08-08T05:31:19.455Z,99.90
2022-08-08T05:33:51.389Z,99.90
2022-08-08T05:36:23.209Z,99.90
2022-08-08T05:38:53.596Z,99.90
2022-08-08T05:41:25.321Z,99.90
2022-08-08T05:44:04.943Z,99.90
2022-08-08T05:46:33.304Z,99.90
2022-08-08T05:49:01.509Z,99.90
2022-08-08T05:51:48.918Z,99.90
2022-08-08T05:57:05.840Z,99.90
2022-08-08T05:59:59.551Z,99.90
2022-08-08T06:02:44.123Z,99.90
2022-08-08T06:05:34.671Z,99.90
2022-08-08T06:08:09.357Z,99.90
2022-08-08T06:10:40.734Z,99.90
2022-08-08T06:13:09.655Z,99.90
2022-08-08T06:15:51.106Z,99.90
2022-08-08T06:18:22.734Z,99.90
2022-08-08T06:20:54.620Z,99.90
2022-08-08T06:23:53.396Z,99.90
2022-08-08T06:26:38.886Z,99.90
2022-08-08T06:29:48.810Z,99.90
2022-08-08T06:32:11.240Z,99.90
2022-08-08T06:34:56.424Z,99.90
2022-08-08T06:37:37.995Z,99.90
2022-08-08T06:40:15.985Z,99.90
2022-08-08T06:42:52.168Z,99.90
2022-08-08T06:45:23.293Z,99.90
2022-08-08T06:47:52.151Z,99.90
2022-08-08T06:50:32.461Z,99.90
2022-08-08T06:53:13.942Z,99.90
2022-08-08T06:55:47.454Z,99.90
2022-08-08T06:58:30.702Z,99.90
2022-08-08T07:01:01.609Z,99.90
2022-08-08T07:04:40.449Z,99.90
2022-08-08T07:06:56.633Z,99.90
2022-08-08T07:09:41.757Z,99.90
2022-08-08T07:12:38.389Z,99.90
2022-08-08T07:15:23.058Z,99.90
2022-08-08T07:18:34.537Z,99.90
2022-08-08T07:20:50.806Z,99.90
2022-08-08T07:23:28.377Z,99.90
2022-08-08T07:26:17.627Z,99.90
2022-08-08T07:28:50.996Z,99.90
2022-08-08T07:31:24.242Z,99.90
2022-08-08T07:33:53.820Z,99.90
2022-08-08T07:36:26.440Z,99.90
2022-08-08T07:38:53.781Z,99.40
2022-08-08T07:41:24.822Z,98.90
2022-08-08T07:43:55.093Z,99.40
2022-08-08T07:46:29.055Z,98.60
2022-08-08T07:48:57.758Z,98.50
2022-08-08T07:51:45.567Z,98.20
2022-08-08T07:54:34.999Z,97.70
2022-08-08T07:57:48.564Z,97.60
2022-08-08T08:00:17.387Z,96.80
2022-08-08T08:02:55.269Z,96.50
2022-08-08T08:05:33.271Z,97.50
2022-08-08T08:08:07.149Z,96.30
2022-08-08T08:10:36.402Z,95.90
2022-08-08T08:13:25.296Z,95.40
2022-08-08T08:16:05.812Z,95.90
2022-08-08T08:18:52.085Z,94.70
2022-08-08T08:21:44.226Z,94.30
2022-08-08T08:24:14.590Z,93.10
2022-08-08T08:26:46.946Z,92.60
2022-08-08T08:29:19.727Z,92.20
2022-08-08T08:31:57.890Z,91.70
2022-08-08T08:34:32.300Z,90.20
2022-08-08T08:37:07.829Z,90.80
2022-08-08T08:40:00.440Z,88.40
2022-08-08T08:42:29.301Z,87.20
2022-08-08T08:45:10.179Z,86.20
2022-08-08T08:47:53.372Z,84.20
2022-08-08T08:50:31.957Z,82.40
2022-08-08T08:53:54.482Z,84.10
2022-08-08T08:56:01.927Z,83.00
2022-08-08T08:58:46.519Z,81.20
2022-08-08T09:01:19.791Z,79.70
2022-08-08T09:03:50.950Z,79.20
2022-08-08T09:06:28.399Z,76.70
2022-08-08T09:09:26.707Z,76.70
2022-08-08T09:12:01.992Z,75.50
2022-08-08T09:14:34.034Z,73.90
2022-08-08T09:17:09.705Z,73.40
2022-08-08T09:21:57.827Z,73.10
2022-08-08T09:22:27.978Z,73.30
2022-08-08T09:24:56.195Z,75.80
2022-08-08T09:27:57.723Z,73.60
2022-08-08T09:30:17.370Z,72.60
2022-08-08T09:33:54.912Z,72.80
2022-08-08T09:35:49.253Z,72.60
2022-08-08T09:38:52.927Z,71.50
2022-08-08T09:41:28.621Z,69.40
2022-08-08T09:44:12.983Z,68.30
2022-08-08T09:46:45.130Z,68.50
2022-08-08T09:49:49.550Z,68.00
2022-08-08T09:52:16.156Z,64.50
2022-08-08T09:54:58.729Z,65.40
2022-08-08T09:57:46.202Z,65.40
2022-08-08T10:00:49.851Z,64.60
2022-08-08T10:03:04.875Z,66.30
2022-08-08T10:05:37.747Z,67.30
2022-08-08T10:08:09.828Z,66.60
2022-08-08T10:10:37.922Z,67.10
2022-08-08T10:13:17.099Z,67.80
2022-08-08T10:16:00.277Z,67.70
2022-08-08T10:18:36.660Z,67.40
2022-08-08T10:21:26.070Z,64.90
2022-08-08T10:24:03.362Z,65.50
2022-08-08T10:26:52.482Z,65.80
2022-08-08T10:29:59.067Z,68.90
2022-08-08T10:32:48.289Z,64.60
2022-08-08T10:36:08.837Z,64.90
2022-08-08T10:38:13.517Z,61.10
2022-08-08T10:40:42.544Z,63.30
2022-08-08T10:43:10.421Z,62.50
2022-08-08T10:45:56.881Z,63.60
2022-08-08T10:48:56.626Z,60.90
2022-08-08T10:51:26.095Z,61.90
2022-08-08T10:53:57.282Z,61.40
2022-08-08T10:56:27.648Z,61.40
2022-08-08T10:59:12.252Z,62.40
2022-08-08T11:01:46.556Z,61.80
2022-08-08T11:04:29.634Z,60.60
2022-08-08T11:07:05.687Z,60.80
2022-08-08T11:09:34.632Z,59.40
2022-08-08T11:12:13.277Z,60.70
2022-08-08T11:14:55.609Z,58.80
2022-08-08T11:18:00.915Z,57.60
2022-08-08T11:20:27.555Z,57.40
2022-08-08T11:23:00.579Z,58.90
2022-08-08T11:25:53.631Z,57.50
2022-08-08T11:28:29.785Z,58.80
2022-08-08T11:31:00.973Z,61.20
2022-08-08T11:33:53.359Z,59.30
2022-08-08T11:36:29.260Z,56.00
2022-08-08T11:38:57.083Z,57.20
2022-08-08T11:41:28.274Z,60.10
2022-08-08T11:44:01.676Z,55.80
2022-08-08T11:46:30.501Z,56.50
2022-08-08T11:49:00.361Z,58.60
2022-08-08T11:51:38.267Z,55.30
2022-08-08T11:54:27.035Z,55.60
2022-08-08T11:56:57.874Z,56.10
2022-08-08T12:00:00.614Z,54.40
2022-08-08T12:02:36.936Z,55.30
2022-08-08T12:05:12.591Z,56.00
2022-08-08T12:07:54.095Z,55.20
2022-08-08T12:10:28.178Z,56.60
2022-08-08T12:13:14.283Z,54.50
2022-08-08T12:15:49.298Z,55.60
2022-08-08T12:18:26.749Z,54.70
2022-08-08T12:20:56.423Z,55.70
2022-08-08T12:23:42.909Z,55.40
2022-08-08T12:26:27.760Z,54.80
2022-08-08T12:29:25.795Z,54.30
2022-08-08T12:32:17.306Z,56.60
2022-08-08T12:34:52.931Z,55.10
2022-08-08T12:37:41.284Z,54.40
2022-08-08T12:40:22.753Z,53.70
2022-08-08T12:42:52.352Z,53.60
2022-08-08T12:45:58.995Z,55.10
2022-08-08T12:48:35.678Z,53.20
2022-08-08T12:51:03.071Z,51.20
2022-08-08T12:53:36.517Z,52.10
2022-08-08T12:56:18.875Z,55.40
2022-08-08T12:58:54.519Z,54.10
2022-08-08T13:01:37.367Z,52.30
2022-08-08T13:04:24.422Z,52.80
2022-08-08T13:06:53.220Z,53.30
2022-08-08T13:09:34.118Z,54.10
2022-08-08T13:12:34.349Z,53.00
2022-08-08T13:15:04.336Z,53.20
2022-08-08T13:18:08.901Z,54.00
2022-08-08T13:20:21.733Z,50.40
2022-08-08T13:22:48.871Z,51.30
2022-08-08T13:25:22.051Z,50.30
2022-08-08T13:27:54.561Z,50.70
2022-08-08T13:30:28.522Z,52.30
2022-08-08T13:32:59.551Z,53.10
2022-08-08T13:35:29.548Z,50.30
2022-08-08T13:38:08.358Z,51.40
2022-08-08T13:40:41.644Z,51.40
2022-08-08T13:43:13.278Z,50.20
2022-08-08T13:45:40.963Z,50.00
2022-08-08T13:48:16.552Z,49.30
2022-08-08T13:50:52.517Z,49.90
2022-08-08T13:53:34.041Z,49.50
2022-08-08T13:56:06.994Z,50.00
2022-08-08T13:58:56.191Z,48.90
2022-08-08T14:01:32.965Z,48.40
2022-08-08T14:04:24.290Z,48.00
2022-08-08T14:07:00.117Z,47.90
2022-08-08T14:10:02.543Z,48.20
2022-08-08T14:12:19.456Z,48.20
2022-08-08T14:14:47.390Z,47.90
2022-08-08T14:17:22.767Z,46.90
2022-08-08T14:20:14.855Z,48.50
2022-08-08T14:22:54.567Z,48.30
2022-08-08T14:25:22.686Z,46.80
2022-08-08T14:28:00.274Z,46.20
2022-08-08T14:30:36.026Z,46.30
2022-08-08T14:33:12.601Z,47.20
2022-08-08T14:35:43.113Z,46.00
2022-08-08T14:38:33.858Z,46.70
2022-08-08T14:40:59.920Z,45.90
2022-08-08T14:44:01.759Z,46.20
2022-08-08T14:46:31.130Z,47.10
2022-08-08T14:49:20.639Z,47.20
2022-08-08T14:52:08.151Z,46.50
2022-08-08T14:54:46.568Z,46.40
2022-08-08T14:57:16.397Z,45.70
2022-08-08T14:59:50.705Z,45.30
2022-08-08T15:02:30.672Z,45.20
2022-08-08T15:05:11.421Z,45.00
2022-08-08T15:07:40.235Z,45.40
2022-08-08T15:10:09.324Z,44.70
2022-08-08T15:12:37.136Z,45.90
2022-08-08T15:15:06.909Z,44.70
2022-08-08T15:17:37.752Z,44.30
2022-08-08T15:20:12.459Z,45.00
2022-08-08T15:22:42.590Z,45.10
2022-08-08T15:25:17.576Z,47.20
2022-08-08T15:28:04.232Z,44.90
2022-08-08T15:30:45.871Z,44.30
2022-08-08T15:33:20.816Z,44.50
2022-08-08T15:36:02.426Z,44.60
2022-08-08T15:38:29.584Z,44.10
2022-08-08T15:40:57.410Z,45.40
2022-08-08T15:43:34.976Z,46.00
2022-08-08T15:46:03.556Z,42.90
2022-08-08T15:48:30.946Z,41.60
2022-08-08T15:51:06.523Z,39.60
2022-08-08T15:53:49.376Z,40.20
2022-08-08T15:56:19.677Z,40.20
2022-08-08T15:58:48.486Z,40.80
2022-08-08T16:01:17.017Z,38.90
2022-08-08T16:03:46.084Z,39.20
2022-08-08T16:06:28.491Z,38.80
2022-08-08T16:12:59.958Z,38.90
2022-08-08T16:13:21.203Z,38.60
2022-08-08T16:14:32.624Z,38.00
2022-08-08T16:17:01.944Z,37.40
2022-08-08T16:19:30.098Z,35.90
2022-08-08T16:21:58.276Z,35.20
2022-08-08T16:24:24.994Z,35.10
2022-08-08T16:26:52.041Z,35.30
2022-08-08T16:29:37.079Z,36.10
2022-08-08T16:32:12.901Z,36.70
2022-08-08T16:34:40.973Z,37.30
2022-08-08T16:37:08.033Z,36.80
2022-08-08T16:40:00.431Z,36.90
2022-08-08T16:42:25.055Z,37.70
2022-08-08T16:44:54.902Z,37.70
2022-08-08T16:47:40.703Z,37.60
2022-08-08T16:50:14.183Z,38.10
2022-08-08T16:55:01.177Z,37.60
2022-08-08T16:55:55.119Z,37.50
2022-08-08T16:58:25.692Z,37.00
2022-08-08T17:00:54.598Z,37.60
2022-08-08T17:03:24.950Z,37.60
2022-08-08T17:06:01.891Z,37.20
2022-08-08T17:08:29.182Z,38.10
2022-08-08T17:10:58.741Z,37.20
2022-08-08T17:13:50.246Z,37.90
2022-08-08T17:16:25.119Z,38.30
2022-08-08T17:18:55.337Z,38.70
2022-08-08T17:21:22.913Z,39.00
2022-08-08T17:24:00.731Z,39.20
2022-08-08T17:26:30.221Z,39.00
2022-08-08T17:29:03.973Z,38.70
2022-08-08T17:31:45.067Z,39.60
2022-08-08T17:34:36.855Z,39.50
2022-08-08T17:37:03.728Z,39.70
2022-08-08T17:40:04.266Z,39.50
2022-08-08T17:42:21.161Z,40.00
2022-08-08T17:44:52.292Z,41.10
2022-08-08T17:47:37.526Z,40.70
2022-08-08T17:50:07.253Z,40.90
2022-08-08T17:52:35.267Z,42.60
2022-08-08T17:55:05.719Z,41.60
2022-08-08T17:57:50.889Z,42.20
2022-08-08T18:00:19.760Z,43.20
2022-08-08T18:02:52.519Z,44.40
2022-08-08T18:05:49.586Z,45.90
2022-08-08T18:08:38.033Z,48.70
2022-08-08T18:11:17.400Z,50.30
2022-08-08T18:13:47.910Z,51.50
2022-08-08T18:16:17.102Z,52.40
2022-08-08T18:18:53.286Z,53.10
2022-08-08T18:21:59.805Z,54.10
2022-08-08T18:24:18.957Z,54.80
2022-08-08T18:26:54.692Z,55.10
2022-08-08T18:29:33.492Z,56.40
2022-08-08T18:32:04.356Z,57.50
2022-08-08T18:34:32.899Z,60.50
2022-08-08T18:37:06.398Z,62.70
2022-08-08T18:39:36.391Z,64.80
2022-08-08T18:42:04.599Z,65.20
2022-08-08T18:44:34.503Z,64.90
2022-08-08T18:47:02.690Z,65.80
2022-08-08T18:49:32.456Z,65.90
2022-08-08T18:52:22.101Z,66.90
2022-08-08T18:54:59.398Z,67.00
2022-08-08T18:57:29.391Z,67.20
2022-08-08T19:00:15.447Z,69.80
2022-08-08T19:02:48.394Z,70.20
2022-08-08T19:05:32.444Z,71.30
2022-08-08T19:08:25.429Z,71.10
2022-08-08T19:11:01.789Z,71.80
2022-08-08T19:13:38.369Z,72.90
2022-08-08T19:16:18.938Z,73.90
2022-08-08T19:18:53.077Z,72.90
2022-08-08T19:21:30.291Z,74.50
2022-08-08T19:24:00.291Z,74.20
2022-08-08T19:26:30.915Z,75.80
2022-08-08T19:29:01.755Z,79.60
2022-08-08T19:31:31.317Z,81.30
2022-08-08T19:34:15.177Z,82.90
2022-08-08T19:36:51.988Z,84.20
2022-08-08T19:39:19.453Z,84.40
2022-08-08T19:41:49.874Z,85.60
2022-08-08T19:44:26.732Z,87.00
2022-08-08T19:47:01.650Z,87.30
2022-08-08T19:49:37.791Z,87.30
2022-08-08T19:52:06.317Z,87.70
2022-08-08T19:54:34.211Z,88.20
2022-08-08T19:57:04.312Z,88.20
2022-08-08T19:59:35.550Z,89.40
2022-08-08T20:02:04.736Z,90.00
2022-08-08T20:04:33.550Z,88.90
2022-08-08T20:07:05.194Z,89.90
2022-08-08T20:09:56.606Z,91.10
2022-08-08T20:12:31.998Z,91.00
2022-08-08T20:15:14.156Z,91.00
2022-08-08T20:17:43.242Z,91.20
2022-08-08T20:20:19.227Z,91.80
2022-08-08T20:22:48.803Z,92.30
2022-08-08T20:25:20.700Z,92.60
2022-08-08T20:27:49.351Z,93.60
2022-08-08T20:30:53.333Z,93.90
2022-08-08T20:33:18.500Z,94.30
2022-08-08T20:35:57.897Z,94.20
2022-08-08T20:38:32.641Z,94.30
2022-08-08T20:41:05.999Z,95.00
2022-08-08T20:43:48.142Z,95.00
2022-08-08T20:46:16.218Z,95.10
2022-08-08T20:48:44.252Z,95.30
2022-08-08T20:51:11.310Z,94.80
2022-08-08T20:53:57.812Z,95.80
2022-08-08T20:56:35.949Z,96.60
2022-08-08T20:59:16.145Z,97.30
2022-08-08T21:02:06.798Z,98.00
2022-08-08T21:04:36.650Z,98.30
2022-08-08T21:07:08.030Z,98.40
2022-08-08T21:10:02.385Z,98.60
2022-08-08T21:12:24.903Z,98.80
2022-08-08T21:15:06.626Z,98.90
2022-08-08T21:17:35.439Z,99.40
2022-08-08T21:20:04.539Z,99.80
2022-08-08T21:22:31.380Z,99.60
2022-08-08T21:24:58.524Z,99.60
2022-08-08T21:28:06.217Z,99.50
2022-08-08T21:30:18.826Z,99.80
2022-08-08T21:32:51.842Z,99.80
2022-08-08T21:36:18.098Z,99.90
2022-08-08T21:38:17.176Z,99.90
2022-08-08T21:40:55.691Z,99.90
2022-08-08T21:43:34.135Z,99.90
2022-08-08T21:48:06.690Z,99.90
2022-08-08T21:48:57.239Z,99.90
2022-08-08T21:54:16.871Z,99.90
2022-08-08T21:54:33.967Z,99.90
2022-08-08T21:57:03.320Z,99.90
2022-08-08T22:00:01.699Z,99.90
2022-08-08T22:02:23.511Z,99.90
2022-08-08T22:04:56.044Z,99.90
2022-08-08T22:07:34.824Z,99.90
2022-08-08T22:10:18.544Z,99.90
2022-08-08T22:13:16.591Z,99.90
2022-08-08T22:15:43.945Z,99.90
2022-08-08T22:18:27.444Z,99.90
2022-08-08T22:20:56.053Z,99.90
2022-08-08T22:23:29.719Z,99.90
2022-08-08T22:26:27.036Z,99.90
2022-08-08T22:29:13.255Z,99.90
2022-08-08T22:31:35.221Z,99.90
2022-08-08T22:34:13.390Z,99.90
2022-08-08T22:36:42.947Z,99.90
2022-08-08T22:39:11.873Z,99.90
2022-08-08T22:41:46.697Z,99.90
2022-08-08T22:44:16.408Z,99.90
2022-08-08T22:46:45.645Z,99.90
2022-08-08T22:49:12.796Z,99.90
2022-08-08T22:51:47.305Z,99.90
2022-08-08T22:54:30.073Z,99.90
2022-08-08T22:57:11.462Z,99.90
2022-08-08T22:59:52.937Z,99.90
2022-08-08T23:02:29.208Z,99.90
2022-08-08T23:04:56.251Z,99.90
2022-08-08T23:07:51.252Z,99.90
2022-08-08T23:10:19.674Z,99.90
2022-08-08T23:12:51.711Z,99.90
2022-08-08T23:16:39.725Z,99.90
2022-08-08T23:18:11.708Z,99.90
2022-08-08T23:20:43.674Z,99.90
2022-08-08T23:23:12.071Z,99.90
2022-08-08T23:25:47.955Z,99.90
2022-08-08T23:28:15.893Z,99.90
2022-08-08T23:30:45.041Z,99.90
2022-08-08T23:33:19.128Z,99.90
2022-08-08T23:36:07.007Z,99.90
2022-08-08T23:38:36.706Z,99.90
2022-08-08T23:41:17.356Z,99.90
2022-08-08T23:43:54.373Z,99.90
2022-08-08T23:49:07.544Z,99.90
2022-08-08T23:49:15.581Z,99.90
2022-08-08T23:52:04.647Z,99.90
2022-08-08T23:54:43.338Z,99.90
2022-08-08T23:57:26.639Z,99.90
